Guararema, Brazil
Current Conditions -  °F | °C
As of 6:08 PM on Sunday 25 Jan 2015 (Local Time) from SBSJ Reporting Station
Thunderstorm Thunderstorm  
Wind Chill: 95°   Ceiling: Unl
Heat Index: 95°   Visibility: 6mi
Dew Point: 55°   Wind: 6mph
Humidity: 26%   Direction: 240°WSW
Pressure: 29.91"   Gusts: NA
Location:  23.42°S, 46.03°W
Report Text: SBSJ 252008Z 24005KT 9999 TS FEW035CB SCT040 35/13 Q1013
Loading
Personal Weather Stations






























Interactive Weather Map New forecast layout! Learn more

10-Day Weather Forecast

Advertisements
Track Severe Weather on mobile